createdAt,value
2023-05-23T00:01:58.674Z,17.74
2023-05-23T00:04:31.628Z,17.82
2023-05-23T00:07:04.786Z,17.83
2023-05-23T00:22:13.442Z,17.46
2023-05-23T00:24:46.309Z,17.39
2023-05-23T00:27:19.171Z,17.51
2023-05-23T00:29:52.004Z,17.43
2023-05-23T00:32:24.862Z,17.44
2023-05-23T00:34:58.178Z,17.38
2023-05-23T00:37:32.458Z,17.46
2023-05-23T00:40:06.103Z,17.39
2023-05-23T00:42:38.969Z,17.41
2023-05-23T00:45:13.364Z,17.36
2023-05-23T00:47:48.262Z,17.36
2023-05-23T00:50:22.165Z,17.42
2023-05-23T00:52:57.595Z,17.41
2023-05-23T00:55:31.442Z,17.37
2023-05-23T00:58:04.269Z,17.30
2023-05-23T01:00:38.610Z,17.22
2023-05-23T01:03:17.746Z,17.24
2023-05-23T01:05:50.750Z,17.35
2023-05-23T01:08:25.272Z,17.29
2023-05-23T01:11:07.367Z,17.45
2023-05-23T01:13:44.249Z,17.36
2023-05-23T01:16:22.127Z,17.43
2023-05-23T01:19:02.231Z,17.28
2023-05-23T01:21:36.030Z,17.62
2023-05-23T01:24:37.843Z,17.67
2023-05-23T01:27:24.630Z,17.68
2023-05-23T01:30:02.975Z,17.75
2023-05-23T01:32:36.900Z,17.67
2023-05-23T01:35:11.770Z,17.63
2023-05-23T01:37:46.563Z,17.40
2023-05-23T01:40:19.457Z,17.39
2023-05-23T01:42:53.023Z,17.23
2023-05-23T01:45:30.649Z,17.12
2023-05-23T01:48:04.897Z,17.16
2023-05-23T01:50:37.748Z,17.04
2023-05-23T01:53:11.263Z,17.03
2023-05-23T01:55:44.977Z,16.96
2023-05-23T01:58:18.136Z,17.29
2023-05-23T02:00:53.533Z,17.00
2023-05-23T02:03:26.629Z,17.13
2023-05-23T02:06:00.118Z,17.36
2023-05-23T02:08:33.579Z,17.35
2023-05-23T02:11:08.845Z,17.46
2023-05-23T02:13:41.632Z,17.53
2023-05-23T02:16:15.988Z,17.66
2023-05-23T02:18:49.233Z,17.53
2023-05-23T02:21:22.226Z,17.64
2023-05-23T02:23:55.151Z,17.46
2023-05-23T02:26:27.953Z,17.59
2023-05-23T02:29:00.875Z,17.56
2023-05-23T02:31:35.540Z,17.52
2023-05-23T02:34:08.485Z,17.42
2023-05-23T02:36:41.281Z,17.19
2023-05-23T02:39:14.476Z,17.23
2023-05-23T02:41:48.939Z,17.08
2023-05-23T02:44:21.845Z,17.22
2023-05-23T02:46:56.369Z,17.42
2023-05-23T02:49:29.537Z,17.30
2023-05-23T02:52:02.351Z,17.41
2023-05-23T02:54:35.479Z,17.29
2023-05-23T02:57:08.427Z,17.41
2023-05-23T02:59:44.208Z,17.39
2023-05-23T03:02:19.012Z,17.20
2023-05-23T03:04:56.113Z,17.32
2023-05-23T03:07:30.295Z,17.13
2023-05-23T03:10:03.347Z,17.23
2023-05-23T03:12:37.135Z,17.04
2023-05-23T03:15:11.264Z,16.97
2023-05-23T03:17:48.263Z,17.14
2023-05-23T03:20:22.889Z,16.84
2023-05-23T03:22:55.889Z,16.70
2023-05-23T03:25:29.613Z,16.49
2023-05-23T03:28:02.658Z,16.44
2023-05-23T03:30:36.107Z,16.44
2023-05-23T03:33:11.321Z,16.38
2023-05-23T03:35:44.959Z,16.30
2023-05-23T03:38:18.194Z,16.52
2023-05-23T03:40:51.140Z,16.43
2023-05-23T03:43:24.182Z,16.47
2023-05-23T03:45:57.446Z,16.45
2023-05-23T03:48:31.925Z,16.61
2023-05-23T03:51:05.201Z,16.58
2023-05-23T03:53:38.210Z,16.49
2023-05-23T03:56:11.232Z,16.49
2023-05-23T03:58:44.250Z,16.60
2023-05-23T04:01:20.515Z,16.51
2023-05-23T04:03:55.616Z,16.54
2023-05-23T04:06:34.750Z,16.55
2023-05-23T04:09:07.824Z,16.55
2023-05-23T04:11:45.767Z,16.54
2023-05-23T04:14:20.383Z,16.54
2023-05-23T04:16:53.671Z,16.62
2023-05-23T04:19:28.458Z,16.70
2023-05-23T04:22:01.606Z,16.66
2023-05-23T04:24:34.925Z,16.66
2023-05-23T04:27:08.567Z,16.72
2023-05-23T04:29:42.579Z,16.73
2023-05-23T04:32:16.816Z,16.65
2023-05-23T04:34:51.946Z,16.68
2023-05-23T04:37:26.347Z,16.74
2023-05-23T04:40:01.162Z,16.83
2023-05-23T04:42:57.332Z,16.86
2023-05-23T04:45:44.105Z,16.92
2023-05-23T04:48:36.138Z,16.99
2023-05-23T04:51:11.534Z,17.14
2023-05-23T04:53:58.193Z,17.24
2023-05-23T04:56:31.752Z,17.26
2023-05-23T04:59:04.986Z,17.28
2023-05-23T05:01:40.906Z,17.42
2023-05-23T05:04:15.630Z,17.40
2023-05-23T05:06:50.509Z,17.47
2023-05-23T05:09:24.222Z,17.42
2023-05-23T05:11:57.351Z,17.52
2023-05-23T05:14:30.199Z,17.52
2023-05-23T05:17:04.084Z,17.59
2023-05-23T05:19:44.932Z,17.76
2023-05-23T05:22:23.454Z,17.96
2023-05-23T05:25:04.798Z,17.97
2023-05-23T05:27:38.816Z,18.02
2023-05-23T05:30:14.939Z,18.16
2023-05-23T05:32:59.074Z,18.12
2023-05-23T05:35:32.401Z,18.26
2023-05-23T05:38:08.284Z,18.26
2023-05-23T05:40:41.848Z,18.20
2023-05-23T05:43:15.512Z,18.16
2023-05-23T05:45:48.400Z,18.16
2023-05-23T05:48:21.487Z,18.23
2023-05-23T05:50:55.870Z,18.13
2023-05-23T05:53:30.088Z,18.08
2023-05-23T05:56:09.164Z,18.08
2023-05-23T05:58:42.444Z,18.02
2023-05-23T06:01:19.117Z,17.99
2023-05-23T06:03:52.274Z,17.91
2023-05-23T06:06:25.512Z,17.95
2023-05-23T06:09:01.004Z,17.75
2023-05-23T06:11:35.276Z,17.96
2023-05-23T06:14:08.268Z,17.94
2023-05-23T06:16:44.056Z,18.09
2023-05-23T06:19:17.743Z,18.16
2023-05-23T06:21:51.842Z,18.16
2023-05-23T06:24:30.295Z,17.99
2023-05-23T06:27:03.217Z,18.13
2023-05-23T06:29:36.890Z,18.33
2023-05-23T06:32:09.899Z,18.44
2023-05-23T06:34:42.875Z,18.26
2023-05-23T06:37:15.961Z,18.23
2023-05-23T06:39:50.219Z,18.26
2023-05-23T06:42:23.855Z,18.64
2023-05-23T06:45:13.214Z,19.19
2023-05-23T06:47:48.231Z,19.42
2023-05-23T06:50:21.374Z,19.53
2023-05-23T06:52:56.375Z,19.27
2023-05-23T06:55:30.663Z,19.20
2023-05-23T06:58:05.033Z,19.05
2023-05-23T07:00:39.815Z,18.98
2023-05-23T07:03:27.947Z,18.88
2023-05-23T07:06:05.756Z,19.19
2023-05-23T07:08:39.778Z,19.06
2023-05-23T07:11:14.169Z,19.10
2023-05-23T07:13:49.980Z,19.39
2023-05-23T07:16:41.581Z,19.32
2023-05-23T07:19:14.846Z,18.98
2023-05-23T07:21:52.050Z,18.79
2023-05-23T07:24:25.804Z,19.37
2023-05-23T07:27:02.667Z,19.60
2023-05-23T07:29:36.964Z,19.71
2023-05-23T07:32:09.907Z,19.25
2023-05-23T07:34:43.743Z,18.81
2023-05-23T07:37:17.247Z,18.68
2023-05-23T07:39:51.468Z,18.82
2023-05-23T07:42:25.918Z,18.68
2023-05-23T07:44:59.112Z,18.47
2023-05-23T07:47:32.055Z,18.57
2023-05-23T07:50:05.895Z,18.61
2023-05-23T07:52:39.153Z,18.44
2023-05-23T07:55:13.320Z,18.39
2023-05-23T07:57:47.697Z,18.11
2023-05-23T08:00:21.910Z,18.12
2023-05-23T08:03:00.837Z,18.21
2023-05-23T08:05:40.499Z,18.12
2023-05-23T08:08:13.485Z,18.17
2023-05-23T08:10:47.199Z,18.05
2023-05-23T08:13:31.537Z,17.97
2023-05-23T08:16:24.452Z,18.25
2023-05-23T08:18:57.742Z,18.56
2023-05-23T08:21:30.792Z,18.56
2023-05-23T08:24:04.618Z,18.68
2023-05-23T08:26:37.791Z,18.76
2023-05-23T08:29:15.783Z,18.59
2023-05-23T08:31:49.307Z,18.41
2023-05-23T08:34:22.604Z,18.75
2023-05-23T08:36:55.560Z,18.50
2023-05-23T08:39:28.562Z,18.80
2023-05-23T08:42:19.557Z,18.53
2023-05-23T08:44:57.687Z,18.61
2023-05-23T08:47:33.923Z,18.44
2023-05-23T08:50:12.519Z,18.26
2023-05-23T08:52:51.628Z,18.60
2023-05-23T08:55:26.480Z,18.51
2023-05-23T08:58:00.578Z,18.69
2023-05-23T09:00:55.658Z,18.86
2023-05-23T09:03:30.082Z,18.64
2023-05-23T09:06:15.972Z,18.41
2023-05-23T09:08:49.535Z,19.04
2023-05-23T09:11:25.997Z,19.74
2023-05-23T09:13:59.100Z,20.25
2023-05-23T09:16:35.867Z,20.46
2023-05-23T09:19:16.210Z,20.81
2023-05-23T09:21:56.662Z,21.22
2023-05-23T09:24:38.383Z,21.53
2023-05-23T09:27:14.214Z,21.58
2023-05-23T09:29:47.845Z,21.38
2023-05-23T09:32:23.107Z,21.78
2023-05-23T09:35:02.534Z,22.03
2023-05-23T09:37:39.363Z,21.18
2023-05-23T09:40:14.202Z,21.00
2023-05-23T09:43:04.027Z,21.50
2023-05-23T09:45:37.083Z,21.16
2023-05-23T09:48:14.996Z,21.10
2023-05-23T09:50:51.506Z,20.87
2023-05-23T09:53:26.285Z,21.00
2023-05-23T09:56:00.850Z,20.61
2023-05-23T09:58:36.808Z,20.47
2023-05-23T10:01:13.005Z,20.69
2023-05-23T10:03:51.125Z,20.67
2023-05-23T10:06:27.913Z,20.63
2023-05-23T10:09:09.410Z,20.73
2023-05-23T10:12:22.336Z,20.62
2023-05-23T10:14:58.628Z,20.68
2023-05-23T10:17:39.004Z,20.35
2023-05-23T10:20:17.540Z,20.16
2023-05-23T10:22:51.241Z,19.97
2023-05-23T10:25:24.467Z,20.00
2023-05-23T10:28:02.391Z,19.68
2023-05-23T10:30:36.445Z,20.14
2023-05-23T10:33:10.137Z,19.52
2023-05-23T10:35:57.669Z,19.49
2023-05-23T10:38:37.970Z,19.58
2023-05-23T10:41:27.294Z,19.57
2023-05-23T10:44:19.043Z,19.48
2023-05-23T10:46:53.844Z,19.77
2023-05-23T10:49:40.000Z,19.73
2023-05-23T10:52:17.955Z,19.85
2023-05-23T10:54:53.870Z,19.63
2023-05-23T10:57:28.737Z,19.87
2023-05-23T11:00:01.853Z,19.85
2023-05-23T11:02:35.028Z,19.98
2023-05-23T11:05:22.317Z,19.81
2023-05-23T11:08:10.188Z,19.61
2023-05-23T11:10:57.301Z,19.53
2023-05-23T11:14:00.241Z,19.45
2023-05-23T11:16:43.099Z,19.68
2023-05-23T11:19:25.615Z,19.73
2023-05-23T11:22:01.332Z,19.99
2023-05-23T11:24:52.516Z,19.75
2023-05-23T11:27:29.766Z,19.89
2023-05-23T11:30:06.257Z,19.86
2023-05-23T11:32:39.153Z,19.52
2023-05-23T11:35:12.582Z,19.53
2023-05-23T11:37:45.995Z,19.91
2023-05-23T11:40:28.824Z,19.61
2023-05-23T11:43:03.349Z,19.70
2023-05-23T11:45:37.503Z,19.53
2023-05-23T11:48:12.153Z,19.81
2023-05-23T11:50:47.219Z,19.43
2023-05-23T11:53:21.969Z,19.63
2023-05-23T11:55:58.585Z,19.42
2023-05-23T11:58:32.805Z,19.14
2023-05-23T12:01:07.669Z,19.13
2023-05-23T12:03:47.844Z,19.19
2023-05-23T12:06:21.378Z,19.32
2023-05-23T12:08:54.602Z,19.53
2023-05-23T12:11:32.622Z,19.65
2023-05-23T12:14:06.664Z,20.03
2023-05-23T12:16:39.882Z,20.19
2023-05-23T12:19:13.271Z,20.14
2023-05-23T12:21:47.660Z,20.03
2023-05-23T12:24:22.350Z,19.91
2023-05-23T12:26:59.707Z,19.97
2023-05-23T12:29:34.953Z,19.59
2023-05-23T12:32:08.591Z,19.40
2023-05-23T12:34:43.523Z,19.46
2023-05-23T12:37:20.100Z,19.53
2023-05-23T12:39:53.712Z,19.46
2023-05-23T12:42:30.511Z,19.48
2023-05-23T12:45:04.445Z,19.74
2023-05-23T12:47:37.416Z,19.68
2023-05-23T12:50:11.469Z,19.66
2023-05-23T12:52:45.033Z,19.66
2023-05-23T12:55:18.200Z,19.50
2023-05-23T12:57:52.689Z,19.64
2023-05-23T13:00:25.802Z,19.81
2023-05-23T13:02:58.927Z,20.01
2023-05-23T13:05:32.065Z,20.49
2023-05-23T13:08:05.585Z,20.21
2023-05-23T13:10:41.389Z,20.33
2023-05-23T13:13:15.834Z,19.77
2023-05-23T13:15:50.957Z,19.76
2023-05-23T13:18:25.705Z,19.76
2023-05-23T13:20:58.985Z,19.63
2023-05-23T13:23:32.509Z,19.76
2023-05-23T13:26:06.764Z,19.84
2023-05-23T13:28:41.289Z,19.79
2023-05-23T13:31:14.557Z,19.90
2023-05-23T13:33:47.566Z,19.63
2023-05-23T13:36:20.526Z,19.43
2023-05-23T13:38:53.618Z,19.44
2023-05-23T13:41:27.608Z,19.52
2023-05-23T13:44:02.230Z,19.44
2023-05-23T13:46:35.710Z,19.51
2023-05-23T13:49:08.806Z,19.65
2023-05-23T13:51:43.381Z,19.67
2023-05-23T13:54:16.390Z,19.40
2023-05-23T13:56:49.524Z,19.39
2023-05-23T13:59:24.061Z,19.42
2023-05-23T14:01:57.497Z,19.40
2023-05-23T14:04:30.778Z,19.45
2023-05-23T14:07:04.330Z,19.38
2023-05-23T14:09:37.651Z,19.19
2023-05-23T14:12:10.983Z,18.99
2023-05-23T14:14:45.535Z,19.11
2023-05-23T14:17:18.708Z,19.64
2023-05-23T14:19:52.141Z,19.51
2023-05-23T14:22:25.436Z,19.25
2023-05-23T14:24:58.993Z,19.42
2023-05-23T14:27:33.688Z,19.42
2023-05-23T14:30:09.754Z,19.39
2023-05-23T14:32:42.941Z,19.28
2023-05-23T14:35:16.119Z,18.91
2023-05-23T14:37:49.458Z,19.36
2023-05-23T14:40:22.482Z,19.18
2023-05-23T14:42:55.435Z,19.12
2023-05-23T14:45:30.207Z,19.21
2023-05-23T14:48:03.282Z,19.05
2023-05-23T14:50:36.536Z,18.80
2023-05-23T14:53:09.564Z,18.86
2023-05-23T14:55:42.728Z,18.96
2023-05-23T14:58:15.860Z,18.79
2023-05-23T15:00:50.297Z,18.78
2023-05-23T15:03:23.742Z,18.99
2023-05-23T15:05:56.783Z,18.96
2023-05-23T15:08:30.533Z,18.66
2023-05-23T15:11:03.414Z,18.90
2023-05-23T15:13:36.689Z,18.56
2023-05-23T15:16:11.067Z,18.62
2023-05-23T15:18:44.000Z,18.55
2023-05-23T15:21:16.983Z,18.44
2023-05-23T15:23:49.868Z,18.45
2023-05-23T15:26:23.867Z,18.44
2023-05-23T15:28:56.838Z,18.65
2023-05-23T15:31:33.671Z,18.46
2023-05-23T15:34:07.053Z,18.33
2023-05-23T15:36:41.274Z,18.37
2023-05-23T15:39:14.303Z,18.56
2023-05-23T15:41:47.412Z,18.48
2023-05-23T15:44:21.936Z,18.72
2023-05-23T15:46:56.592Z,18.83
2023-05-23T15:49:30.071Z,18.74
2023-05-23T15:52:02.921Z,18.65
2023-05-23T15:54:35.726Z,18.59
2023-05-23T15:57:08.627Z,18.35
2023-05-23T15:59:42.096Z,18.23
2023-05-23T16:02:18.930Z,18.10
2023-05-23T16:04:51.815Z,17.95
2023-05-23T16:07:24.748Z,18.00
2023-05-23T16:09:57.529Z,18.27
2023-05-23T16:12:31.135Z,18.25
2023-05-23T16:15:04.658Z,18.14
2023-05-23T16:17:38.902Z,17.92
2023-05-23T16:20:12.628Z,17.82
2023-05-23T16:22:45.986Z,17.94
2023-05-23T16:25:19.263Z,17.83
2023-05-23T16:27:52.215Z,18.26
2023-05-23T16:30:27.828Z,18.14
2023-05-23T16:33:02.097Z,17.78
2023-05-23T16:35:35.168Z,17.71
2023-05-23T16:38:08.256Z,17.95
2023-05-23T16:40:41.582Z,18.04
2023-05-23T16:43:14.934Z,17.69
2023-05-23T16:45:48.117Z,17.64
2023-05-23T16:48:22.824Z,17.79
2023-05-23T16:50:56.306Z,17.64
2023-05-23T16:53:29.286Z,17.72
2023-05-23T16:56:02.221Z,17.57
2023-05-23T16:58:38.408Z,17.55
2023-05-23T17:01:11.495Z,17.68
2023-05-23T17:03:49.198Z,17.61
2023-05-23T17:06:22.493Z,17.56
2023-05-23T17:08:55.500Z,17.37
2023-05-23T17:11:28.530Z,17.43
2023-05-23T17:14:02.073Z,17.34
2023-05-23T17:16:35.200Z,17.30
2023-05-23T17:19:09.729Z,17.23
2023-05-23T17:21:42.650Z,17.10
2023-05-23T17:24:16.054Z,17.08
2023-05-23T17:26:49.015Z,17.03
2023-05-23T17:29:22.150Z,17.04
2023-05-23T17:31:54.999Z,17.12
2023-05-23T17:34:29.205Z,17.01
2023-05-23T17:37:02.064Z,16.81
2023-05-23T17:39:34.941Z,16.75
2023-05-23T17:42:07.810Z,16.93
2023-05-23T17:44:40.688Z,16.91
2023-05-23T17:47:13.805Z,16.84
2023-05-23T17:49:47.985Z,16.81
2023-05-23T17:52:20.883Z,16.91
2023-05-23T17:54:53.767Z,16.82
2023-05-23T17:57:26.784Z,16.74
2023-05-23T18:00:00.214Z,16.80
2023-05-23T18:02:33.059Z,16.62
2023-05-23T18:05:09.343Z,16.66
2023-05-23T18:07:42.174Z,16.60
2023-05-23T18:10:15.167Z,16.43
2023-05-23T18:12:47.977Z,16.58
2023-05-23T18:15:26.979Z,16.67
2023-05-23T18:18:00.259Z,16.51
2023-05-23T18:20:36.193Z,16.39
2023-05-23T18:23:10.940Z,16.16
2023-05-23T18:25:43.975Z,16.25
2023-05-23T18:28:17.059Z,16.15
2023-05-23T18:30:50.168Z,15.86
2023-05-23T18:33:23.349Z,15.87
2023-05-23T18:35:58.482Z,15.74
2023-05-23T18:38:31.639Z,15.69
2023-05-23T18:41:06.568Z,15.67
2023-05-23T18:43:39.663Z,15.65
2023-05-23T18:46:12.938Z,15.66
2023-05-23T18:48:46.902Z,15.76
2023-05-23T18:51:21.081Z,15.61
2023-05-23T18:53:53.904Z,15.50
2023-05-23T18:56:26.994Z,15.51
2023-05-23T18:59:00.034Z,15.60
2023-05-23T19:01:32.953Z,15.39
2023-05-23T19:04:06.057Z,15.42
2023-05-23T19:06:40.384Z,15.45
2023-05-23T19:09:13.308Z,15.26
2023-05-23T19:11:46.230Z,15.26
2023-05-23T19:14:19.156Z,15.15
2023-05-23T19:16:52.206Z,15.25
2023-05-23T19:19:25.263Z,15.14
2023-05-23T19:22:00.724Z,15.08
2023-05-23T19:24:33.787Z,15.07
2023-05-23T19:27:06.860Z,15.00
2023-05-23T19:29:39.722Z,15.11
2023-05-23T19:32:12.718Z,14.95
2023-05-23T19:34:45.690Z,15.17
2023-05-23T19:37:19.950Z,14.94
2023-05-23T19:39:52.874Z,15.26
2023-05-23T19:42:25.825Z,15.31
2023-05-23T19:44:58.677Z,15.04
2023-05-23T19:47:32.454Z,14.90
2023-05-23T19:50:05.937Z,14.99
2023-05-23T19:52:41.068Z,15.11
2023-05-23T19:55:14.431Z,14.86
2023-05-23T19:57:47.452Z,14.55
2023-05-23T20:00:20.652Z,14.81
2023-05-23T20:02:53.744Z,14.77
2023-05-23T20:05:26.595Z,14.72
2023-05-23T20:08:01.437Z,14.81
2023-05-23T20:10:34.404Z,14.86
2023-05-23T20:13:07.600Z,14.67
2023-05-23T20:15:40.828Z,14.79
2023-05-23T20:18:13.807Z,14.86
2023-05-23T20:20:46.770Z,14.50
2023-05-23T20:23:21.112Z,14.57
2023-05-23T20:25:53.992Z,14.59
2023-05-23T20:28:27.558Z,14.54
2023-05-23T20:31:00.686Z,14.71
2023-05-23T20:33:34.337Z,14.80
2023-05-23T20:36:07.705Z,14.71
2023-05-23T20:38:42.341Z,14.59
2023-05-23T20:41:15.270Z,14.37
2023-05-23T20:43:48.262Z,14.53
2023-05-23T20:46:21.301Z,14.28
2023-05-23T20:48:54.192Z,14.41
2023-05-23T20:51:27.109Z,14.17
2023-05-23T20:54:01.358Z,14.13
2023-05-23T20:56:34.779Z,14.05
2023-05-23T20:59:08.270Z,14.21
2023-05-23T21:01:41.207Z,14.06
2023-05-23T21:04:14.038Z,13.89
2023-05-23T21:06:47.115Z,13.76
2023-05-23T21:09:21.351Z,13.78
2023-05-23T21:11:54.175Z,13.68
2023-05-23T21:14:27.000Z,13.52
2023-05-23T21:17:00.240Z,13.69
2023-05-23T21:19:33.164Z,13.72
2023-05-23T21:22:06.290Z,13.45
2023-05-23T21:24:40.488Z,13.41
2023-05-23T21:27:13.565Z,13.60
2023-05-23T21:29:47.208Z,13.53
2023-05-23T21:32:20.561Z,13.49
2023-05-23T21:34:53.561Z,13.65
2023-05-23T21:37:26.437Z,13.43
2023-05-23T21:40:00.650Z,13.51
2023-05-23T21:42:33.601Z,13.29
2023-05-23T21:45:07.518Z,13.22
2023-05-23T21:47:40.441Z,13.12
2023-05-23T21:50:13.332Z,13.18
2023-05-23T21:52:46.287Z,13.03
2023-05-23T21:55:21.178Z,12.81
2023-05-23T21:57:53.977Z,12.77
2023-05-23T22:00:27.388Z,12.88
2023-05-23T22:03:00.289Z,12.67
2023-05-23T22:05:33.150Z,12.73
2023-05-23T22:08:06.308Z,12.80
2023-05-23T22:10:41.535Z,12.75
2023-05-23T22:13:14.576Z,12.61
2023-05-23T22:15:47.366Z,12.49
2023-05-23T22:18:20.245Z,12.27
2023-05-23T22:20:53.786Z,12.33
2023-05-23T22:23:26.722Z,12.28
2023-05-23T22:26:01.244Z,12.11
2023-05-23T22:28:35.428Z,11.93
2023-05-23T22:31:09.817Z,11.70
2023-05-23T22:33:44.656Z,11.77
2023-05-23T22:36:17.674Z,11.63
2023-05-23T22:38:50.786Z,11.63
2023-05-23T22:41:25.220Z,11.77
2023-05-23T22:43:58.272Z,11.51
2023-05-23T22:46:31.152Z,11.67
2023-05-23T22:49:04.209Z,11.61
2023-05-23T22:51:37.153Z,11.60
2023-05-23T22:54:10.172Z,11.08
2023-05-23T22:56:44.480Z,11.21
2023-05-23T22:59:17.469Z,10.98
2023-05-23T23:01:51.391Z,11.31
2023-05-23T23:04:25.508Z,11.03
2023-05-23T23:06:59.229Z,11.05
2023-05-23T23:09:32.129Z,11.05
2023-05-23T23:12:07.053Z,11.05
2023-05-23T23:14:39.930Z,10.98
2023-05-23T23:17:13.580Z,11.18
2023-05-23T23:19:46.920Z,11.19
2023-05-23T23:22:19.796Z,11.16
2023-05-23T23:24:53.603Z,11.14
2023-05-23T23:27:30.845Z,11.07
2023-05-23T23:30:04.142Z,11.04
2023-05-23T23:32:37.104Z,11.03
2023-05-23T23:35:10.253Z,10.86
2023-05-23T23:37:43.367Z,10.76
2023-05-23T23:40:16.327Z,10.59
2023-05-23T23:42:50.509Z,10.57
2023-05-23T23:45:23.398Z,10.54
2023-05-23T23:47:56.492Z,10.47
2023-05-23T23:50:31.378Z,10.49
2023-05-23T23:53:04.602Z,10.54
2023-05-23T23:55:37.751Z,10.35
2023-05-23T23:58:11.896Z,10.37
